createdAt,value
2023-01-13T00:00:55.076Z,93243.47
2023-01-13T00:02:26.629Z,93244.78
2023-01-13T00:03:58.268Z,93240.50
2023-01-13T00:05:29.791Z,93245.28
2023-01-13T00:07:01.246Z,93244.22
2023-01-13T00:08:32.779Z,93241.88
2023-01-13T00:10:04.692Z,93240.50
2023-01-13T00:11:36.147Z,93242.63
2023-01-13T00:13:08.263Z,93239.97
2023-01-13T00:14:39.702Z,93244.78
2023-01-13T00:16:12.248Z,93246.88
2023-01-13T00:17:44.039Z,93246.63
2023-01-13T00:19:15.594Z,93239.97
2023-01-13T00:20:47.075Z,93250.34
2023-01-13T00:22:18.627Z,93247.97
2023-01-13T00:23:50.457Z,93250.34
2023-01-13T00:25:21.955Z,93244.78
2023-01-13T00:26:53.426Z,93246.09
2023-01-13T00:28:25.042Z,93248.75
2023-01-13T00:29:56.501Z,93250.34
2023-01-13T00:31:28.374Z,93251.94
2023-01-13T00:32:59.866Z,93244.22
2023-01-13T00:34:31.363Z,93246.88
2023-01-13T00:36:03.030Z,93244.47
2023-01-13T00:37:38.113Z,93251.66
2023-01-13T00:39:09.743Z,93249.81
2023-01-13T00:40:41.247Z,93249.00
2023-01-13T00:42:31.800Z,93240.72
2023-01-13T00:44:03.331Z,93248.44
2023-01-13T00:45:34.854Z,93246.59
2023-01-13T00:47:06.396Z,93248.75
2023-01-13T00:48:38.139Z,93245.03
2023-01-13T00:50:10.134Z,93241.56
2023-01-13T00:51:41.568Z,93243.44
2023-01-13T00:53:14.022Z,93244.47
2023-01-13T00:54:45.564Z,93241.53
2023-01-13T00:56:22.143Z,93245.25
2023-01-13T00:58:05.788Z,93242.84
2023-01-13T00:59:42.485Z,93240.97
2023-01-13T01:01:34.859Z,93241.78
2023-01-13T01:03:25.948Z,93245.50
2023-01-13T01:05:00.175Z,93236.22
2023-01-13T01:06:31.720Z,93242.31
2023-01-13T01:08:03.288Z,93237.00
2023-01-13T01:09:34.778Z,93238.34
2023-01-13T01:11:07.800Z,93241.28
2023-01-13T01:12:42.118Z,93241.53
2023-01-13T01:14:20.186Z,93241.78
2023-01-13T01:16:03.026Z,93240.19
2023-01-13T01:18:09.756Z,93235.91
2023-01-13T01:19:42.392Z,93246.28
2023-01-13T01:21:14.150Z,93238.59
2023-01-13T01:22:45.660Z,93240.50
2023-01-13T01:24:17.221Z,93230.94
2023-01-13T01:25:48.723Z,93232.78
2023-01-13T01:27:20.310Z,93226.94
2023-01-13T01:28:53.517Z,93226.41
2023-01-13T01:32:16.561Z,93226.41
2023-01-13T01:33:51.858Z,93229.06
2023-01-13T01:35:26.010Z,93229.06
2023-01-13T01:37:01.335Z,93223.44
2023-01-13T01:38:54.773Z,93221.03
2023-01-13T01:40:36.450Z,93225.03
2023-01-13T01:42:48.567Z,93218.63
2023-01-13T01:44:46.762Z,93225.81
2023-01-13T01:48:13.367Z,93214.38
2023-01-13T01:49:44.958Z,93219.44
2023-01-13T01:51:16.520Z,93216.53
2023-01-13T01:52:49.584Z,93215.22
2023-01-13T01:54:26.046Z,93215.50
2023-01-13T01:56:10.166Z,93209.38
2023-01-13T01:57:59.006Z,93220.28
2023-01-13T01:59:37.171Z,93217.88
2023-01-13T02:01:16.621Z,93215.22
2023-01-13T02:02:49.246Z,93214.72
2023-01-13T02:04:28.481Z,93211.25
2023-01-13T02:06:18.573Z,93208.53
2023-01-13T02:07:58.181Z,93203.47
2023-01-13T02:09:34.780Z,93202.09
2023-01-13T02:13:22.981Z,93207.41
2023-01-13T02:14:54.442Z,93208.75
2023-01-13T02:16:25.884Z,93202.34
2023-01-13T02:18:06.232Z,93205.03
2023-01-13T02:19:56.858Z,93205.34
2023-01-13T02:21:40.314Z,93204.28
2023-01-13T02:23:49.313Z,93196.59
2023-01-13T02:25:38.987Z,93204.31
2023-01-13T02:27:17.036Z,93199.53
2023-01-13T02:29:18.647Z,93203.25
2023-01-13T02:31:10.667Z,93204.31
2023-01-13T02:33:00.475Z,93205.09
2023-01-13T02:34:42.637Z,93202.16
2023-01-13T02:36:17.896Z,93205.63
2023-01-13T02:37:49.338Z,93202.97
2023-01-13T02:39:26.994Z,93205.38
2023-01-13T02:41:21.053Z,93204.81
2023-01-13T02:43:10.840Z,93204.03
2023-01-13T02:44:43.755Z,93203.47
2023-01-13T02:46:20.777Z,93197.09
2023-01-13T02:47:55.875Z,93201.63
2023-01-13T02:49:29.941Z,93200.81
2023-01-13T02:51:05.101Z,93199.75
2023-01-13T02:52:52.635Z,93200.03
2023-01-13T02:54:24.643Z,93201.06
2023-01-13T02:55:56.349Z,93196.56
2023-01-13T02:57:27.834Z,93200.28
2023-01-13T02:58:59.381Z,93198.97
2023-01-13T03:00:30.985Z,93200.28
2023-01-13T03:02:03.558Z,93198.16
2023-01-13T03:03:36.676Z,93188.31
2023-01-13T03:05:08.234Z,93193.13
2023-01-13T03:06:39.726Z,93201.41
2023-01-13T03:08:39.747Z,93198.44
2023-01-13T03:10:15.975Z,93193.94
2023-01-13T03:12:07.308Z,93194.47
2023-01-13T03:13:39.339Z,93199.53
2023-01-13T03:15:29.554Z,93204.06
2023-01-13T03:17:04.179Z,93201.91
2023-01-13T03:18:45.010Z,93197.13
2023-01-13T03:20:18.655Z,93197.13
2023-01-13T03:22:08.135Z,93191.28
2023-01-13T03:23:53.482Z,93204.88
2023-01-13T03:25:26.263Z,93202.22
2023-01-13T03:27:16.949Z,93195.28
2023-01-13T03:29:07.109Z,93197.13
2023-01-13T03:30:43.058Z,93199.00
2023-01-13T03:32:23.206Z,93197.94
2023-01-13T03:33:55.744Z,93190.75
2023-01-13T03:35:31.363Z,93201.16
2023-01-13T03:37:04.000Z,93195.06
2023-01-13T03:38:42.898Z,93200.63
2023-01-13T03:40:15.604Z,93204.09
2023-01-13T03:41:53.180Z,93194.50
2023-01-13T03:43:44.970Z,93201.97
2023-01-13T03:45:17.094Z,93203.28
2023-01-13T03:46:58.594Z,93196.13
2023-01-13T03:48:30.200Z,93194.25
2023-01-13T03:50:07.096Z,93197.94
2023-01-13T03:51:39.133Z,93193.97
2023-01-13T03:53:11.646Z,93203.81
2023-01-13T03:54:45.210Z,93199.81
2023-01-13T03:56:18.127Z,93201.91
2023-01-13T03:57:53.407Z,93205.66
2023-01-13T03:59:27.113Z,93201.66
2023-01-13T04:01:03.533Z,93200.31
2023-01-13T04:02:44.515Z,93200.28
2023-01-13T04:04:20.334Z,93203.72
2023-01-13T04:05:52.672Z,93207.44
2023-01-13T04:07:42.668Z,93209.84
2023-01-13T04:09:17.429Z,93208.50
2023-01-13T04:10:53.520Z,93210.63
2023-01-13T04:12:27.496Z,93213.53
2023-01-13T04:13:59.497Z,93207.41
2023-01-13T04:15:35.197Z,93212.97
2023-01-13T04:17:06.927Z,93219.91
2023-01-13T04:18:38.816Z,93215.13
2023-01-13T04:20:10.631Z,93216.72
2023-01-13T04:21:42.419Z,93220.72
2023-01-13T04:23:13.982Z,93226.31
2023-01-13T04:24:45.625Z,93222.91
2023-01-13T04:26:17.712Z,93223.72
2023-01-13T04:27:49.323Z,93217.84
2023-01-13T04:29:20.905Z,93214.91
2023-01-13T04:30:52.623Z,93220.25
2023-01-13T04:32:24.203Z,93219.44
2023-01-13T04:33:55.986Z,93221.59
2023-01-13T04:35:27.688Z,93219.19
2023-01-13T04:36:59.251Z,93219.72
2023-01-13T04:38:30.853Z,93221.34
2023-01-13T04:40:02.415Z,93215.50
2023-01-13T04:41:53.935Z,93225.06
2023-01-13T04:43:25.479Z,93227.22
2023-01-13T04:44:57.081Z,93224.81
2023-01-13T04:46:28.758Z,93220.53
2023-01-13T04:48:00.312Z,93224.25
2023-01-13T04:49:31.837Z,93222.09
2023-01-13T04:51:03.389Z,93221.28
2023-01-13T04:52:34.885Z,93226.63
2023-01-13T04:54:06.428Z,93223.16
2023-01-13T04:55:38.043Z,93220.50
2023-01-13T04:57:09.960Z,93221.84
2023-01-13T04:58:42.023Z,93223.16
2023-01-13T05:00:14.470Z,93223.97
2023-01-13T05:01:46.099Z,93229.03
2023-01-13T05:03:18.707Z,93225.56
2023-01-13T05:04:50.280Z,93228.25
2023-01-13T05:06:21.831Z,93238.66
2023-01-13T05:07:53.340Z,93242.09
2023-01-13T05:09:24.985Z,93238.91
2023-01-13T05:10:59.753Z,93237.56
2023-01-13T05:12:50.007Z,93238.59
2023-01-13T05:14:40.274Z,93237.25
2023-01-13T05:16:30.450Z,93242.84
2023-01-13T05:18:02.062Z,93244.44
2023-01-13T05:19:34.360Z,93246.28
2023-01-13T05:21:25.877Z,93243.88
2023-01-13T05:23:16.209Z,93249.72
2023-01-13T05:25:06.455Z,93243.59
2023-01-13T05:26:37.956Z,93251.56
2023-01-13T05:28:09.631Z,93247.59
2023-01-13T05:29:41.227Z,93248.41
2023-01-13T05:31:14.948Z,93248.69
2023-01-13T05:32:46.760Z,93243.63
2023-01-13T05:34:18.347Z,93239.38
2023-01-13T05:35:50.048Z,93247.91
2023-01-13T05:37:21.918Z,93249.22
2023-01-13T05:38:53.416Z,93246.28
2023-01-13T05:40:43.367Z,93246.03
2023-01-13T05:42:33.577Z,93243.88
2023-01-13T05:44:05.118Z,93244.44
2023-01-13T05:45:36.740Z,93243.88
2023-01-13T05:47:08.192Z,93249.75
2023-01-13T05:48:40.567Z,93242.81
2023-01-13T05:50:13.316Z,93240.97
2023-01-13T05:51:44.877Z,93243.88
2023-01-13T05:53:17.510Z,93253.47
2023-01-13T05:54:49.144Z,93247.59
2023-01-13T05:56:20.679Z,93249.47
2023-01-13T05:57:52.221Z,93247.59
2023-01-13T05:59:23.671Z,93250.00
2023-01-13T06:00:59.400Z,93255.06
2023-01-13T06:02:30.912Z,93254.03
2023-01-13T06:04:02.782Z,93252.41
2023-01-13T06:05:34.569Z,93252.97
2023-01-13T06:07:06.333Z,93255.63
2023-01-13T06:08:39.716Z,93262.25
2023-01-13T06:10:11.619Z,93263.06
2023-01-13T06:11:43.299Z,93265.72
2023-01-13T06:13:14.853Z,93264.13
2023-01-13T06:14:46.549Z,93259.59
2023-01-13T06:16:18.396Z,93265.16
2023-01-13T06:17:50.116Z,93271.59
2023-01-13T06:19:21.852Z,93272.38
2023-01-13T06:20:53.480Z,93272.91
2023-01-13T06:22:26.457Z,93274.75
2023-01-13T06:23:58.161Z,93273.97
2023-01-13T06:25:32.720Z,93271.84
2023-01-13T06:27:05.080Z,93271.59
2023-01-13T06:28:36.666Z,93265.50
2023-01-13T06:30:08.695Z,93261.50
2023-01-13T06:31:41.136Z,93270.28
2023-01-13T06:33:14.152Z,93272.94
2023-01-13T06:34:46.606Z,93264.16
2023-01-13T06:36:56.144Z,93266.00
2023-01-13T06:38:27.932Z,93267.38
2023-01-13T06:40:00.222Z,93266.09
2023-01-13T06:41:51.314Z,93262.91
2023-01-13T06:43:22.851Z,93263.97
2023-01-13T06:44:54.912Z,93259.72
2023-01-13T06:46:26.466Z,93262.91
2023-01-13T06:47:59.416Z,93263.44
2023-01-13T06:49:31.032Z,93265.59
2023-01-13T06:51:03.392Z,93266.94
2023-01-13T06:52:35.043Z,93267.78
2023-01-13T06:54:06.689Z,93266.97
2023-01-13T06:55:38.845Z,93265.34
2023-01-13T06:57:10.359Z,93266.41
2023-01-13T06:58:41.990Z,93268.25
2023-01-13T07:00:13.832Z,93272.56
2023-01-13T07:01:45.540Z,93272.06
2023-01-13T07:03:17.269Z,93274.47
2023-01-13T07:04:49.049Z,93271.75
2023-01-13T07:06:20.573Z,93273.38
2023-01-13T07:07:52.138Z,93268.84
2023-01-13T07:09:24.043Z,93273.91
2023-01-13T07:10:55.699Z,93268.03
2023-01-13T07:12:27.151Z,93267.75
2023-01-13T07:14:17.184Z,93269.06
2023-01-13T07:15:57.964Z,93262.69
2023-01-13T07:17:29.500Z,93269.59
2023-01-13T07:19:01.149Z,93258.97
2023-01-13T07:20:32.809Z,93256.56
2023-01-13T07:22:04.453Z,93261.88
2023-01-13T07:23:39.945Z,93259.22
2023-01-13T07:25:11.980Z,93257.34
2023-01-13T07:26:43.959Z,93260.56
2023-01-13T07:28:15.864Z,93254.19
2023-01-13T07:29:48.140Z,93261.63
2023-01-13T07:31:21.425Z,93254.22
2023-01-13T07:32:53.721Z,93256.63
2023-01-13T07:34:32.169Z,93252.91
2023-01-13T07:36:15.388Z,93255.84
2023-01-13T07:37:47.487Z,93257.97
2023-01-13T07:39:19.807Z,93256.38
2023-01-13T07:40:51.838Z,93258.50
2023-01-13T07:42:42.195Z,93257.19
2023-01-13T07:44:14.234Z,93259.63
2023-01-13T07:45:46.169Z,93258.59
2023-01-13T07:47:22.748Z,93260.22
2023-01-13T07:48:54.615Z,93269.00
2023-01-13T07:50:36.281Z,93269.84
2023-01-13T07:52:08.261Z,93261.56
2023-01-13T07:53:40.726Z,93259.97
2023-01-13T07:55:12.799Z,93262.13
2023-01-13T07:56:44.748Z,93265.34
2023-01-13T07:58:17.126Z,93266.16
2023-01-13T07:59:49.218Z,93262.66
2023-01-13T08:01:21.718Z,93263.47
2023-01-13T08:02:54.375Z,93268.28
2023-01-13T08:04:26.013Z,93257.06
2023-01-13T08:05:57.647Z,93269.34
2023-01-13T08:07:29.457Z,93271.47
2023-01-13T08:09:01.033Z,93272.00
2023-01-13T08:10:32.617Z,93274.13
2023-01-13T08:12:22.749Z,93273.63
2023-01-13T08:13:58.483Z,93270.94
2023-01-13T08:15:34.013Z,93278.94
2023-01-13T08:17:06.086Z,93273.59
2023-01-13T08:18:38.347Z,93272.25
2023-01-13T08:20:10.949Z,93273.06
2023-01-13T08:21:43.192Z,93282.13
2023-01-13T08:23:15.896Z,93284.53
2023-01-13T08:24:49.957Z,93282.13
2023-01-13T08:26:25.362Z,93282.94
2023-01-13T08:27:57.697Z,93280.25
2023-01-13T08:29:29.462Z,93287.19
2023-01-13T08:31:02.200Z,93289.56
2023-01-13T08:32:34.716Z,93288.53
2023-01-13T08:34:07.456Z,93292.53
2023-01-13T08:35:42.658Z,93292.00
2023-01-13T08:37:14.786Z,93292.50
2023-01-13T08:38:46.647Z,93288.78
2023-01-13T08:40:19.939Z,93294.38
2023-01-13T08:41:58.901Z,93288.28
2023-01-13T08:43:32.809Z,93291.19
2023-01-13T08:45:06.865Z,93292.00
2023-01-13T08:46:39.310Z,93289.59
2023-01-13T08:48:13.791Z,93288.53
2023-01-13T08:49:46.110Z,93295.47
2023-01-13T08:51:18.397Z,93288.78
2023-01-13T08:52:50.575Z,93292.53
2023-01-13T08:54:25.156Z,93292.78
2023-01-13T08:55:56.867Z,93281.06
2023-01-13T08:57:29.246Z,93298.38
2023-01-13T08:59:01.612Z,93287.97
2023-01-13T09:00:34.003Z,93293.31
2023-01-13T09:02:17.798Z,93287.75
2023-01-13T09:03:53.557Z,93285.34
2023-01-13T09:05:28.771Z,93285.34
2023-01-13T09:07:03.113Z,93290.16
2023-01-13T09:08:35.259Z,93290.94
2023-01-13T09:10:07.863Z,93287.97
2023-01-13T09:12:00.314Z,93289.34
2023-01-13T09:13:32.594Z,93285.84
2023-01-13T09:15:06.939Z,93285.31
2023-01-13T09:16:39.072Z,93285.59
2023-01-13T09:18:15.720Z,93286.91
2023-01-13T09:19:47.581Z,93285.84
2023-01-13T09:21:21.803Z,93282.63
2023-01-13T09:22:56.819Z,93282.09
2023-01-13T09:24:28.903Z,93282.09
2023-01-13T09:26:10.059Z,93278.59
2023-01-13T09:27:41.872Z,93275.94
2023-01-13T09:29:14.489Z,93273.53
2023-01-13T09:30:46.709Z,93265.50
2023-01-13T09:32:18.894Z,93268.19
2023-01-13T09:34:09.109Z,93268.72
2023-01-13T09:35:41.219Z,93269.25
2023-01-13T09:37:15.316Z,93268.72
2023-01-13T09:38:46.907Z,93271.91
2023-01-13T09:40:19.561Z,93266.81
2023-01-13T09:42:11.494Z,93271.34
2023-01-13T09:43:58.945Z,93268.41
2023-01-13T09:45:42.829Z,93270.78
2023-01-13T09:47:28.371Z,93272.34
2023-01-13T09:49:00.039Z,93269.41
2023-01-13T09:50:50.107Z,93274.47
2023-01-13T09:52:26.922Z,93271.00
2023-01-13T09:54:17.025Z,93276.38
2023-01-13T09:55:48.634Z,93270.78
2023-01-13T09:57:20.675Z,93265.44
2023-01-13T09:58:53.304Z,93266.50
2023-01-13T10:00:26.268Z,93262.22
2023-01-13T10:02:05.961Z,93267.78
2023-01-13T10:03:38.784Z,93257.13
2023-01-13T10:05:22.262Z,93253.38
2023-01-13T10:07:01.842Z,93252.03
2023-01-13T10:08:40.030Z,93252.56
2023-01-13T10:10:17.254Z,93256.25
2023-01-13T10:13:56.554Z,93254.16
2023-01-13T10:15:28.684Z,93248.34
2023-01-13T10:17:24.063Z,93257.97
2023-01-13T10:18:56.118Z,93249.41
2023-01-13T10:20:30.846Z,93245.66
2023-01-13T10:22:24.196Z,93247.81
2023-01-13T10:23:57.729Z,93242.41
2023-01-13T10:25:48.168Z,93236.22
2023-01-13T10:27:30.765Z,93234.31
2023-01-13T10:29:02.631Z,93234.84
2023-01-13T10:30:36.242Z,93244.19
2023-01-13T10:32:12.974Z,93243.38
2023-01-13T10:33:47.961Z,93244.94
2023-01-13T10:35:40.010Z,93243.59
2023-01-13T10:37:25.012Z,93240.66
2023-01-13T10:39:21.079Z,93243.31
2023-01-13T10:40:54.007Z,93239.59
2023-01-13T10:42:28.439Z,93245.72
2023-01-13T10:44:01.863Z,93237.72
2023-01-13T10:45:38.334Z,93241.16
2023-01-13T10:47:16.816Z,93234.97
2023-01-13T10:48:56.312Z,93235.50
2023-01-13T10:50:29.090Z,93232.53
2023-01-13T10:52:05.682Z,93233.88
2023-01-13T10:53:45.400Z,93232.28
2023-01-13T10:55:44.357Z,93224.81
2023-01-13T10:57:20.021Z,93233.63
2023-01-13T10:58:53.210Z,93231.22
2023-01-13T11:00:29.656Z,93229.63
2023-01-13T11:02:33.962Z,93223.47
2023-01-13T11:04:16.946Z,93227.75
2023-01-13T11:05:52.010Z,93228.81
2023-01-13T11:07:38.892Z,93228.22
2023-01-13T11:09:11.399Z,93235.41
2023-01-13T11:11:04.284Z,93230.06
2023-01-13T11:12:58.839Z,93238.06
2023-01-13T11:14:43.974Z,93226.00
2023-01-13T11:16:22.880Z,93226.81
2023-01-13T11:18:05.267Z,93224.94
2023-01-13T11:19:38.567Z,93226.25
2023-01-13T11:21:19.406Z,93219.25
2023-01-13T11:22:53.695Z,93212.03
2023-01-13T11:24:45.351Z,93215.22
2023-01-13T11:26:19.411Z,93212.22
2023-01-13T11:28:05.176Z,93208.25
2023-01-13T11:30:01.155Z,93213.09
2023-01-13T11:31:33.798Z,93216.59
2023-01-13T11:33:14.805Z,93211.75
2023-01-13T11:34:48.734Z,93211.47
2023-01-13T11:36:28.418Z,93215.22
2023-01-13T11:38:02.474Z,93209.34
2023-01-13T11:39:54.243Z,93210.41
2023-01-13T11:41:30.793Z,93207.47
2023-01-13T11:43:10.922Z,93208.81
2023-01-13T11:44:46.169Z,93211.47
2023-01-13T11:46:21.102Z,93209.59
2023-01-13T11:47:55.217Z,93211.47
2023-01-13T11:49:28.246Z,93208.28
2023-01-13T11:51:15.347Z,93209.59
2023-01-13T11:52:56.619Z,93203.47
2023-01-13T11:54:38.642Z,93210.69
2023-01-13T11:56:28.673Z,93204.47
2023-01-13T11:58:03.562Z,93204.47
2023-01-13T11:59:44.042Z,93206.06
2023-01-13T12:01:28.864Z,93206.13
2023-01-13T12:03:03.904Z,93204.00
2023-01-13T12:04:40.585Z,93207.75
2023-01-13T12:06:12.672Z,93204.28
2023-01-13T12:08:03.471Z,93202.13
2023-01-13T12:09:41.553Z,93209.09
2023-01-13T12:11:34.543Z,93201.88
2023-01-13T12:13:11.575Z,93202.94
2023-01-13T12:14:46.809Z,93202.66
2023-01-13T12:16:24.718Z,93204.25
2023-01-13T12:18:04.956Z,93203.19
2023-01-13T12:19:37.155Z,93200.22
2023-01-13T12:21:20.297Z,93206.88
2023-01-13T12:22:53.423Z,93204.97
2023-01-13T12:24:31.986Z,93200.63
2023-01-13T12:26:10.615Z,93200.09
2023-01-13T12:27:47.614Z,93204.88
2023-01-13T12:29:47.834Z,93205.16
2023-01-13T12:33:32.837Z,93202.53
2023-01-13T12:35:26.556Z,93206.56
2023-01-13T12:37:10.198Z,93209.25
2023-01-13T12:39:11.991Z,93209.53
2023-01-13T12:41:07.555Z,93204.47
2023-01-13T12:43:04.173Z,93205.06
2023-01-13T12:44:36.470Z,93207.72
2023-01-13T12:46:21.693Z,93213.59
2023-01-13T12:47:53.765Z,93209.28
2023-01-13T12:49:25.439Z,93205.53
2023-01-13T12:51:03.370Z,93207.94
2023-01-13T12:52:45.327Z,93206.31
2023-01-13T12:54:35.785Z,93211.91
2023-01-13T12:56:29.093Z,93207.13
2023-01-13T12:58:07.548Z,93217.09
2023-01-13T12:59:39.687Z,93212.00
2023-01-13T13:01:12.162Z,93205.28
2023-01-13T13:03:01.561Z,93209.81
2023-01-13T13:04:48.319Z,93210.94
2023-01-13T13:06:20.896Z,93210.13
2023-01-13T13:07:53.697Z,93210.94
2023-01-13T13:09:25.929Z,93212.00
2023-01-13T13:11:03.359Z,93211.22
2023-01-13T13:13:10.044Z,93222.00
2023-01-13T13:14:42.368Z,93212.63
2023-01-13T13:16:40.285Z,93215.25
2023-01-13T13:18:19.103Z,93210.97
2023-01-13T13:19:51.330Z,93212.56
2023-01-13T13:21:23.007Z,93211.72
2023-01-13T13:22:55.266Z,93215.19
2023-01-13T13:24:26.898Z,93218.63
2023-01-13T13:26:17.076Z,93215.66
2023-01-13T13:28:07.359Z,93215.97
2023-01-13T13:29:48.267Z,93218.66
2023-01-13T13:31:20.434Z,93213.59
2023-01-13T13:32:57.056Z,93212.50
2023-01-13T13:34:46.993Z,93212.22
2023-01-13T13:36:29.319Z,93213.53
2023-01-13T13:38:27.888Z,93221.84
2023-01-13T13:40:21.590Z,93221.06
2023-01-13T13:42:17.786Z,93214.69
2023-01-13T13:44:08.185Z,93215.22
2023-01-13T13:46:12.699Z,93223.56
2023-01-13T13:47:44.961Z,93217.72
2023-01-13T13:49:18.159Z,93223.84
2023-01-13T13:50:57.259Z,93228.41
2023-01-13T13:52:43.008Z,93224.41
2023-01-13T13:54:16.799Z,93223.38
2023-01-13T13:55:55.632Z,93226.06
2023-01-13T13:57:31.372Z,93221.56
2023-01-13T13:59:04.193Z,93219.72
2023-01-13T14:00:36.463Z,93224.00
2023-01-13T14:02:13.402Z,93220.25
2023-01-13T14:03:49.211Z,93222.41
2023-01-13T14:05:23.033Z,93217.59
2023-01-13T14:07:01.332Z,93223.78
2023-01-13T14:08:37.367Z,93217.41
2023-01-13T14:10:16.573Z,93227.00
2023-01-13T14:11:55.648Z,93221.91
2023-01-13T14:13:31.541Z,93218.19
2023-01-13T14:15:03.629Z,93222.41
2023-01-13T14:16:36.487Z,93213.59
2023-01-13T14:18:15.987Z,93222.72
2023-01-13T14:19:58.684Z,93223.00
2023-01-13T14:21:31.156Z,93217.66
2023-01-13T14:23:06.512Z,93220.06
2023-01-13T14:24:45.712Z,93226.75
2023-01-13T14:26:18.081Z,93221.97
2023-01-13T14:27:53.315Z,93224.13
2023-01-13T14:29:26.573Z,93226.28
2023-01-13T14:31:01.762Z,93232.47
2023-01-13T14:32:35.754Z,93225.31
2023-01-13T14:34:31.166Z,93228.81
2023-01-13T14:36:33.470Z,93228.84
2023-01-13T14:38:16.480Z,93227.25
2023-01-13T14:39:48.488Z,93227.03
2023-01-13T14:41:25.221Z,93230.50
2023-01-13T14:43:00.236Z,93224.38
2023-01-13T14:44:39.102Z,93231.34
2023-01-13T14:46:11.417Z,93230.84
2023-01-13T14:47:49.302Z,93237.25
2023-01-13T14:49:32.990Z,93238.31
2023-01-13T14:51:11.515Z,93238.84
2023-01-13T14:52:50.831Z,93239.38
2023-01-13T14:54:41.024Z,93241.53
2023-01-13T14:56:33.535Z,93242.88
2023-01-13T14:58:37.900Z,93247.41
2023-01-13T15:00:16.768Z,93251.41
2023-01-13T15:01:48.863Z,93251.91
2023-01-13T15:03:23.387Z,93245.78
2023-01-13T15:05:01.927Z,93251.16
2023-01-13T15:06:40.956Z,93245.81
2023-01-13T15:08:14.767Z,93246.34
2023-01-13T15:09:46.875Z,93243.94
2023-01-13T15:11:24.839Z,93254.34
2023-01-13T15:12:58.681Z,93250.88
2023-01-13T15:14:32.779Z,93250.34
2023-01-13T15:16:06.463Z,93257.56
2023-01-13T15:17:39.048Z,93262.63
2023-01-13T15:19:11.642Z,93250.06
2023-01-13T15:20:44.763Z,93257.03
2023-01-13T15:22:17.255Z,93252.44
2023-01-13T15:23:51.405Z,93258.06
2023-01-13T15:25:23.701Z,93260.19
2023-01-13T15:26:56.205Z,93258.59
2023-01-13T15:28:28.651Z,93254.84
2023-01-13T15:30:00.884Z,93252.19
2023-01-13T15:31:33.342Z,93253.53
2023-01-13T15:33:05.556Z,93255.13
2023-01-13T15:34:37.575Z,93255.38
2023-01-13T15:36:20.427Z,93258.56
2023-01-13T15:37:52.493Z,93257.75
2023-01-13T15:39:24.616Z,93259.09
2023-01-13T15:40:56.578Z,93259.09
2023-01-13T15:42:49.286Z,93263.63
2023-01-13T15:44:39.903Z,93258.31
2023-01-13T15:46:31.425Z,93259.94
2023-01-13T15:48:03.063Z,93261.78
2023-01-13T15:49:36.402Z,93259.13
2023-01-13T15:51:08.969Z,93255.66
2023-01-13T15:52:40.644Z,93263.13
2023-01-13T15:54:12.808Z,93267.66
2023-01-13T15:55:44.991Z,93259.66
2023-01-13T15:57:21.369Z,93259.66
2023-01-13T15:58:53.023Z,93263.94
2023-01-13T16:00:25.038Z,93266.06
2023-01-13T16:01:56.871Z,93261.28
2023-01-13T16:03:28.463Z,93263.97
2023-01-13T16:05:00.547Z,93253.56
2023-01-13T16:06:36.317Z,93261.81
2023-01-13T16:08:25.502Z,93258.34
2023-01-13T16:09:57.114Z,93267.16
2023-01-13T16:11:28.783Z,93264.75
2023-01-13T16:13:01.276Z,93272.50
2023-01-13T16:14:32.867Z,93268.75
2023-01-13T16:16:04.759Z,93271.16
2023-01-13T16:17:36.567Z,93268.75
2023-01-13T16:19:09.672Z,93261.28
2023-01-13T16:20:41.348Z,93261.00
2023-01-13T16:22:14.310Z,93270.38
2023-01-13T16:23:46.451Z,93261.03
2023-01-13T16:25:19.667Z,93263.41
2023-01-13T16:26:51.201Z,93263.97
2023-01-13T16:28:24.340Z,93263.69
2023-01-13T16:29:55.944Z,93258.09
2023-01-13T16:31:30.733Z,93258.63
2023-01-13T16:33:02.777Z,93259.16
2023-01-13T16:34:34.353Z,93255.97
2023-01-13T16:36:11.778Z,93257.03
2023-01-13T16:37:47.254Z,93254.38
2023-01-13T16:39:22.549Z,93263.16
2023-01-13T16:40:54.272Z,93257.84
2023-01-13T16:42:25.969Z,93261.59
2023-01-13T16:43:58.178Z,93266.63
2023-01-13T16:45:30.404Z,93268.78
2023-01-13T16:47:02.172Z,93267.19
2023-01-13T16:48:33.947Z,93267.41
2023-01-13T16:50:06.035Z,93255.16
2023-01-13T16:51:37.674Z,93270.63
2023-01-13T16:53:12.009Z,93270.38
2023-01-13T16:54:43.563Z,93270.38
2023-01-13T16:56:17.179Z,93266.88
2023-01-13T16:57:48.880Z,93267.94
2023-01-13T16:59:21.733Z,93267.94
2023-01-13T17:00:53.469Z,93275.91
2023-01-13T17:02:25.246Z,93273.78
2023-01-13T17:03:57.177Z,93277.50
2023-01-13T17:05:28.838Z,93267.63
2023-01-13T17:07:01.748Z,93271.91
2023-01-13T17:08:33.440Z,93278.84
2023-01-13T17:10:05.631Z,93274.31
2023-01-13T17:11:37.440Z,93274.59
2023-01-13T17:13:15.952Z,93278.06
2023-01-13T17:14:48.217Z,93278.59
2023-01-13T17:16:21.241Z,93275.13
2023-01-13T17:17:55.417Z,93274.31
2023-01-13T17:19:27.117Z,93273.78
2023-01-13T17:21:00.179Z,93272.19
2023-01-13T17:22:31.909Z,93271.69
2023-01-13T17:24:05.994Z,93275.66
2023-01-13T17:25:37.577Z,93272.97
2023-01-13T17:27:09.437Z,93278.59
2023-01-13T17:28:41.115Z,93281.56
2023-01-13T17:30:14.779Z,93274.34
2023-01-13T17:31:46.491Z,93270.34
2023-01-13T17:33:18.313Z,93273.53
2023-01-13T17:34:50.090Z,93273.53
2023-01-13T17:36:24.229Z,93275.41
2023-01-13T17:37:56.571Z,93270.34
2023-01-13T17:39:28.432Z,93272.47
2023-01-13T17:41:04.158Z,93278.88
2023-01-13T17:42:37.181Z,93270.34
2023-01-13T17:44:09.411Z,93274.34
2023-01-13T17:45:41.775Z,93271.13
2023-01-13T17:47:14.229Z,93266.59
2023-01-13T17:48:50.739Z,93271.69
2023-01-13T17:50:22.531Z,93263.91
2023-01-13T17:51:54.176Z,93265.22
2023-01-13T17:53:25.777Z,93268.19
2023-01-13T17:54:57.888Z,93264.47
2023-01-13T17:56:29.935Z,93262.88
2023-01-13T17:58:02.024Z,93266.03
2023-01-13T17:59:33.617Z,93259.09
2023-01-13T18:01:09.673Z,93265.22
2023-01-13T18:02:41.436Z,93268.19
2023-01-13T18:04:16.844Z,93267.91
2023-01-13T18:05:48.694Z,93266.03
2023-01-13T18:07:20.691Z,93262.81
2023-01-13T18:08:52.530Z,93261.19
2023-01-13T18:10:24.329Z,93264.97
2023-01-13T18:11:56.056Z,93262.03
2023-01-13T18:13:28.406Z,93261.00
2023-01-13T18:15:00.106Z,93266.03
2023-01-13T18:16:31.996Z,93268.47
2023-01-13T18:18:03.765Z,93269.53
2023-01-13T18:19:53.908Z,93272.47
2023-01-13T18:21:44.723Z,93266.03
2023-01-13T18:23:35.448Z,93274.03
2023-01-13T18:25:28.147Z,93272.97
2023-01-13T18:27:18.636Z,93274.03
2023-01-13T18:28:50.247Z,93264.94
2023-01-13T18:30:22.152Z,93269.78
2023-01-13T18:31:53.908Z,93266.03
2023-01-13T18:33:25.506Z,93264.19
2023-01-13T18:35:06.650Z,93268.72
2023-01-13T18:36:38.940Z,93265.28
2023-01-13T18:38:13.625Z,93261.78
2023-01-13T18:39:45.554Z,93267.13
2023-01-13T18:41:35.674Z,93273.78
2023-01-13T18:43:07.332Z,93273.53
2023-01-13T18:44:39.086Z,93274.34
2023-01-13T18:46:10.695Z,93283.16
2023-01-13T18:47:42.682Z,93274.06
2023-01-13T18:49:14.379Z,93275.41
2023-01-13T18:50:46.579Z,93273.81
2023-01-13T18:52:18.445Z,93280.22
2023-01-13T18:53:50.102Z,93278.59
2023-01-13T18:55:21.876Z,93266.63
2023-01-13T18:56:53.916Z,93270.59
2023-01-13T18:58:25.672Z,93268.47
2023-01-13T18:59:57.847Z,93267.13
2023-01-13T19:01:30.209Z,93265.53
2023-01-13T19:04:37.416Z,93270.59
2023-01-13T19:06:11.910Z,93263.41